Terminal Aerodrome Forecast
Issued by NWS

Home | Current Version | Previous Version | Text Only | Print | Product List | Glossary On
Versions: 1 2 3 4 5 6 7 8 9 10 11 12 13 14 15 16 17 18 19 20 21
755
FTUS43 KPAH 191127
TAFCGI
TAF
KCGI 191127Z 1912/2012 17010KT 6SM BR VCSH OVC006
      TEMPO 1912/1914 4SM -RA BR OVC003
     FM191500 19012G22KT P6SM OVC008
     FM191800 19013G23KT P6SM BKN015
     FM200000 18012G22KT P6SM SCT030 BKN060 WS020/20050KT PROB30
      2009/2012 -SHRA BKN030=

USA.gov is the U.S. government's official web portal to all federal, state and local government web resources and services.